Airfield :
LOGIN :

Register | Disclaimer

   EN    FR    IT 

 










Legend :    VFR   Marginal VFR   IFR   Intensive IFR   Very Intensive IFR
Visi :
Ceiling :
>= 8 km
>= 3000ft
5 to 8 km
1000 to 3000 ft
1500m to 5 km
500 to 1000 ft
800 to 1500m
200 to 500 ft
< 800m
< 200 ft
Symbols :   Thunderstorms  Fog  Heavy snow  Heavy precipitations  Wind > 20 kt
SIGMETs :     Misc.  Thunderstorms  Icing  Turbulence  Mountain Waves  Volcanic Ashes






- Airport Elevation : 670 ft
- IATA code : MSQ


UMMS - Minsk - 2

CURRENT METAR :
  • 291230Z 01008G11MPS 9999 BKN020 13/10 Q1015 R31R/////// R31L/CLRD// NOSIG

EXPIRED METARs :
  • 291200Z 01009G12MPS 9999 -RA BKN021 13/10 Q1015 R31R/////// R31L/CLRD// NOSIG
  • 291130Z 02008G12MPS 9999 -RA BKN022 13/09 Q1015 R31R/////// R31L/CLRD// NOSIG
  • 291100Z 02008G11MPS 9999 -RA BKN024 13/09 Q1016 R31R/////// R31L/CLRD// NOSIG
  • 291030Z 01005G08MPS 330V040 9999 -RA BKN024 13/09 Q1016 R31R/////// R31L/CLRD// NOSIG
  • 291000Z 02007G12MPS 9999 BKN023 13/09 Q1016 R31R/////// R31L/CLRD// NOSIG

TAF TAF UMMS
Valid from the 29 at 12:00 until the 30 at 12:00 UTC


291102Z 2912/3012 36006G11MPS 6000 -RA SCT007 BKN015
TEMPO 2912/3012 02011G16MPS 1200 TSRA BKN003 BKN020CB



MET'MAP, your aeronautical weather chart ! - Copyright ORBIFLY December 2007 - Disclaimer

ORBIFLY MET'MAP TEAM :

Programming & Development : Alexandra Zaïnal
Concept & original design : Baudouin d'Aumeries
Assistance for programming : Marc-Olivier Méhu
Technical & hardware support : Manuel Goepfert

Contact : metmap@orbifly.com




SOURCES & CREDITS :

   NOAA